DABB

Annaba/Rabah Bitat

Airport
ICAO code
DABB
Summary
ICAO Region
AFI
ICAO Territory
Location

Annaba,

Coordinates
36° 49' 20" N , 7° 48' 34" E
Metar
Observation
DABB 312000Z 25008KT 9999 -RA FEW023 BKN033 10/08 Q1026
Station
Annaba
Date/Time
2023-01-31 20:00:00
Wind direction
250°
Wind speed
08 kts
Lowest cloud amount
few clouds
Temperature
10°C
Dew point
8°C
Humidity
87%
QNH
1026 hPa
Weather condition
light rain

Description

Rabah Bitat Airport, formerly known as Les Salines Airport, and popularly as El Mellah Airport is an international airport located 9 km south of Annaba, a city in Algeria.

Runways

Designator Length Width Surface Rops
5/23 2290 45 ASP Yes/Yes
1/19 3000 45 ASP Yes/Yes

Airport map

Aerial View

SKYbrary Partners:

Safety knowledge contributed by: